Time;durP1;ratioP1;P1;durP2;ratioP2;P2;SDS_P1;SDS_P2;PMS_P1;PMS_P2;Temp;Humidity;BMP_temperature;BMP_pressure;BME280_temperature;BME280_humidity;BME280_pressure;Samples;Min_cycle;Max_cycle;Signal;HPM_P1;HPM_P2
2020/12/20 00:02:09;;;;;;;16.00;15.00;;;8.80;99.90;;;;;;5117959;27;20472;-76
2020/12/20 00:04:36;;;;;;;16.77;15.27;;;8.70;99.90;;;;;;5120794;27;20509;-74
2020/12/20 00:07:02;;;;;;;16.77;15.17;;;8.60;99.90;;;;;;5117989;27;20472;-75
2020/12/20 00:09:29;;;;;;;16.97;15.33;;;8.60;99.90;;;;;;5116999;27;20839;-74
2020/12/20 00:11:56;;;;;;;17.07;15.23;;;8.50;99.90;;;;;;5117130;27;20485;-75
2020/12/20 00:14:30;;;;;;;16.07;14.70;;;8.50;99.90;;;;;;5119493;27;20469;-77
2020/12/20 00:16:58;;;;;;;21.17;15.93;;;8.50;99.90;;;;;;5128591;27;20448;-75
2020/12/20 00:19:26;;;;;;;16.30;14.70;;;8.40;99.90;;;;;;5117702;27;20463;-76
2020/12/20 00:21:58;;;;;;;24.73;16.43;;;8.40;99.90;;;;;;5119998;27;20464;-73
2020/12/20 00:24:25;;;;;;;21.67;15.73;;;8.40;99.90;;;;;;5120562;27;20459;-76
2020/12/20 00:26:51;;;;;;;16.80;15.13;;;8.40;99.90;;;;;;5117875;27;21020;-76
2020/12/20 00:29:18;;;;;;;18.03;16.13;;;8.40;99.90;;;;;;5122145;27;20996;-74
2020/12/20 00:31:48;;;;;;;20.30;17.60;;;8.40;99.90;;;;;;5127026;27;20456;-74
2020/12/20 00:34:14;;;;;;;16.80;15.10;;;8.40;99.90;;;;;;5115466;27;20813;-74
2020/12/20 00:36:47;;;;;;;26.03;14.90;;;8.40;99.90;;;;;;5121373;27;20468;-76
2020/12/20 00:39:15;;;;;;;20.23;15.30;;;8.40;99.90;;;;;;5119844;27;20468;-75
2020/12/20 00:41:42;;;;;;;21.87;15.30;;;8.40;99.90;;;;;;5121565;27;21432;-76
2020/12/20 00:44:09;;;;;;;19.60;15.40;;;8.40;99.90;;;;;;5123822;27;20463;-76
2020/12/20 00:46:36;;;;;;;23.43;15.43;;;8.40;99.90;;;;;;5120293;27;20539;-76
2020/12/20 00:49:05;;;;;;;36.47;15.77;;;8.40;99.90;;;;;;5120333;27;20862;-75
2020/12/20 00:51:33;;;;;;;17.30;15.27;;;8.40;99.90;;;;;;5117503;27;20974;-76
2020/12/20 00:54:00;;;;;;;20.70;15.73;;;8.50;99.90;;;;;;5122191;27;20464;-74
2020/12/20 00:56:26;;;;;;;17.27;15.03;;;8.50;99.90;;;;;;5116916;27;20456;-76
2020/12/20 00:58:53;;;;;;;23.00;15.30;;;8.50;99.90;;;;;;5120399;27;20488;-75
2020/12/20 01:01:20;;;;;;;17.40;15.03;;;8.50;99.90;;;;;;5118748;27;20888;-76
2020/12/20 01:03:46;;;;;;;16.53;15.13;;;8.50;99.90;;;;;;5121186;27;20457;-76
2020/12/20 01:06:17;;;;;;;16.30;14.20;;;8.60;99.90;;;;;;5117578;27;21167;-74
2020/12/20 01:08:43;;;;;;;16.67;15.07;;;8.60;99.90;;;;;;5118055;27;20495;-74
2020/12/20 01:11:10;;;;;;;21.17;15.27;;;8.60;99.90;;;;;;5120390;27;20879;-75
2020/12/20 01:13:37;;;;;;;17.60;15.00;;;8.70;99.90;;;;;;5116196;27;20521;-75
2020/12/20 01:16:05;;;;;;;18.30;14.87;;;8.80;99.90;;;;;;5124481;27;20469;-74
2020/12/20 01:18:32;;;;;;;16.93;15.23;;;8.80;99.90;;;;;;5117566;27;21017;-75
2020/12/20 01:20:58;;;;;;;18.13;16.40;;;8.80;99.90;;;;;;5120568;27;20456;-75
2020/12/20 01:23:27;;;;;;;19.53;15.17;;;8.90;99.90;;;;;;5119072;27;20461;-76
2020/12/20 01:25:53;;;;;;;28.97;16.30;;;8.90;99.90;;;;;;5121907;27;20493;-75
2020/12/20 01:28:21;;;;;;;22.47;16.30;;;8.90;99.90;;;;;;5117011;27;20483;-76
2020/12/20 01:30:47;;;;;;;22.07;14.90;;;8.90;99.90;;;;;;5123591;27;20459;-76
2020/12/20 01:33:13;;;;;;;17.67;15.37;;;9.00;99.90;;;;;;5116315;27;20484;-74
2020/12/20 01:35:39;;;;;;;22.97;15.40;;;9.00;99.90;;;;;;5117779;27;20460;-76
2020/12/20 01:38:07;;;;;;;24.73;14.47;;;9.00;99.90;;;;;;5119639;27;20513;-74
2020/12/20 01:40:34;;;;;;;15.70;14.10;;;9.00;99.90;;;;;;5120623;27;20970;-74
2020/12/20 01:43:02;;;;;;;15.63;14.23;;;9.00;99.90;;;;;;5122201;27;20515;-74
2020/12/20 01:45:28;;;;;;;16.63;14.90;;;9.00;99.90;;;;;;5117203;27;20460;-77
2020/12/20 01:47:55;;;;;;;18.43;14.80;;;8.90;99.90;;;;;;5120031;27;20488;-75
2020/12/20 01:50:22;;;;;;;15.90;14.40;;;8.90;99.90;;;;;;5117504;27;20468;-76
2020/12/20 01:52:49;;;;;;;14.70;13.70;;;8.80;99.90;;;;;;5115674;27;20460;-74
2020/12/20 01:55:19;;;;;;;14.97;14.00;;;8.80;99.90;;;;;;5119381;27;20452;-75
2020/12/20 01:57:48;;;;;;;20.53;15.30;;;8.70;99.90;;;;;;5120261;27;20467;-74
2020/12/20 02:00:15;;;;;;;20.40;15.37;;;8.70;99.90;;;;;;5118816;27;20512;-77
2020/12/20 02:02:42;;;;;;;17.77;15.63;;;8.60;99.90;;;;;;5124079;27;20542;-73
2020/12/20 02:05:08;;;;;;;18.53;16.00;;;8.60;99.90;;;;;;5113921;28;20464;-73
2020/12/20 02:07:35;;;;;;;16.70;14.60;;;8.50;99.90;;;;;;5118560;28;20479;-75
2020/12/20 02:10:01;;;;;;;22.90;15.17;;;8.60;99.90;;;;;;5119509;28;20468;-75
2020/12/20 02:12:29;;;;;;;27.70;15.20;;;8.60;99.90;;;;;;5119472;28;20460;-74
2020/12/20 02:14:56;;;;;;;27.47;15.70;;;8.50;99.90;;;;;;5115541;28;21015;-76
2020/12/20 02:17:22;;;;;;;23.30;15.27;;;8.60;99.90;;;;;;5123634;28;20865;-73
2020/12/20 02:19:49;;;;;;;22.17;14.00;;;8.60;99.90;;;;;;5124659;28;20463;-75
2020/12/20 02:22:16;;;;;;;20.50;15.13;;;8.60;99.90;;;;;;5115600;28;20472;-77
2020/12/20 02:24:43;;;;;;;30.83;14.60;;;8.60;99.90;;;;;;5117477;28;20464;-75
2020/12/20 02:27:09;;;;;;;29.00;16.50;;;8.60;99.90;;;;;;5117604;28;20488;-75
2020/12/20 02:29:36;;;;;;;26.83;14.53;;;8.50;99.90;;;;;;5118106;28;20657;-76
2020/12/20 02:32:03;;;;;;;24.67;15.03;;;8.60;99.90;;;;;;5123424;28;20552;-75
2020/12/20 02:34:30;;;;;;;18.30;14.83;;;8.60;99.90;;;;;;5117049;28;20473;-75
2020/12/20 02:36:56;;;;;;;15.63;14.10;;;8.60;99.90;;;;;;5121749;28;20470;-76
2020/12/20 02:39:24;;;;;;;23.77;13.90;;;8.60;99.90;;;;;;5113846;28;20466;-76
2020/12/20 02:41:56;;;;;;;18.87;16.07;;;8.60;99.90;;;;;;5118646;28;20496;-75
2020/12/20 02:44:22;;;;;;;18.33;15.20;;;8.60;99.90;;;;;;5117008;28;20571;-75
2020/12/20 02:46:48;;;;;;;15.90;14.50;;;8.60;99.90;;;;;;5114407;28;20477;-74
2020/12/20 02:49:15;;;;;;;18.50;14.90;;;8.60;99.90;;;;;;5121091;28;20798;-74
2020/12/20 02:51:42;;;;;;;23.83;15.30;;;8.60;99.90;;;;;;5119699;28;21083;-73
2020/12/20 02:54:11;;;;;;;16.67;15.30;;;8.60;99.90;;;;;;5118214;28;20520;-76
2020/12/20 02:56:45;;;;;;;15.37;14.13;;;8.60;99.90;;;;;;5113549;28;20901;-76
2020/12/20 02:59:12;;;;;;;25.20;15.23;;;8.60;99.90;;;;;;5114633;27;20488;-76
2020/12/20 03:01:39;;;;;;;27.37;15.27;;;8.60;99.90;;;;;;5125327;27;20457;-75
2020/12/20 03:04:05;;;;;;;17.17;15.37;;;8.60;99.90;;;;;;5117277;27;20460;-75
2020/12/20 03:06:31;;;;;;;17.27;14.10;;;8.60;99.90;;;;;;5121435;27;20455;-76
2020/12/20 03:08:59;;;;;;;20.10;15.00;;;8.60;99.90;;;;;;5124396;27;20507;-76
2020/12/20 03:11:26;;;;;;;26.83;14.40;;;8.60;99.90;;;;;;5117810;27;20509;-76
2020/12/20 03:13:53;;;;;;;17.00;15.40;;;8.60;99.90;;;;;;5121742;27;20465;-74
2020/12/20 03:16:20;;;;;;;17.13;15.53;;;8.60;99.90;;;;;;5120641;27;20456;-73
2020/12/20 03:18:46;;;;;;;17.70;15.87;;;8.50;99.90;;;;;;5121624;27;20452;-75
2020/12/20 03:21:12;;;;;;;17.80;16.13;;;8.50;99.90;;;;;;5123644;27;20460;-77
2020/12/20 03:23:42;;;;;;;16.93;15.70;;;8.50;99.90;;;;;;5123900;27;20467;-76
2020/12/20 03:26:09;;;;;;;16.87;15.67;;;8.60;99.90;;;;;;5123085;27;20569;-74
2020/12/20 03:28:36;;;;;;;17.40;16.10;;;8.50;99.90;;;;;;5125241;27;20517;-75
2020/12/20 03:31:04;;;;;;;16.53;15.53;;;8.50;99.90;;;;;;5122029;27;20455;-76
2020/12/20 03:33:30;;;;;;;17.03;15.73;;;8.50;99.90;;;;;;5123068;27;20503;-75
2020/12/20 03:35:56;;;;;;;17.27;16.00;;;8.50;99.90;;;;;;5125271;27;20464;-76
2020/12/20 03:38:23;;;;;;;17.73;16.10;;;8.50;99.90;;;;;;5118196;27;20463;-74
2020/12/20 03:40:49;;;;;;;16.83;15.23;;;8.50;99.90;;;;;;5122549;27;21028;-76
2020/12/20 03:43:16;;;;;;;16.87;15.50;;;8.50;99.90;;;;;;5120236;27;20460;-76
2020/12/20 03:45:42;;;;;;;19.93;16.10;;;8.50;99.90;;;;;;5123774;27;20452;-74
2020/12/20 03:48:10;;;;;;;18.00;15.93;;;8.50;99.90;;;;;;5117711;27;20492;-75
2020/12/20 03:50:36;;;;;;;16.83;15.53;;;8.50;99.90;;;;;;5119075;27;20554;-73
2020/12/20 03:53:03;;;;;;;17.67;15.87;;;8.50;99.90;;;;;;5121020;27;20466;-75
2020/12/20 03:55:30;;;;;;;16.60;15.10;;;8.50;99.90;;;;;;5118055;27;20470;-75
2020/12/20 03:57:57;;;;;;;17.90;16.50;;;8.50;99.90;;;;;;5123784;27;20457;-75
2020/12/20 04:00:24;;;;;;;17.83;16.43;;;8.50;99.90;;;;;;5123435;27;21744;-75
2020/12/20 04:02:52;;;;;;;17.77;16.37;;;8.50;99.90;;;;;;5124997;27;20456;-75
2020/12/20 04:05:20;;;;;;;17.20;15.70;;;8.50;99.90;;;;;;5118181;27;20466;-76
2020/12/20 04:07:47;;;;;;;16.57;15.27;;;8.50;99.90;;;;;;5119477;27;20487;-74
2020/12/20 04:10:15;;;;;;;18.00;16.60;;;8.50;99.90;;;;;;5118030;27;21046;-74
2020/12/20 04:12:42;;;;;;;19.03;17.07;;;8.50;99.90;;;;;;5122279;27;20530;-75
2020/12/20 04:15:11;;;;;;;16.77;15.57;;;8.50;99.90;;;;;;5124467;27;20454;-74
2020/12/20 04:17:38;;;;;;;17.37;15.87;;;8.50;99.90;;;;;;5122603;27;20519;-76
2020/12/20 04:20:04;;;;;;;18.80;16.60;;;8.40;99.90;;;;;;5123456;27;20460;-76
2020/12/20 04:22:33;;;;;;;18.10;15.37;;;8.40;99.90;;;;;;5120382;27;20462;-77
2020/12/20 04:24:59;;;;;;;20.93;15.97;;;8.40;99.90;;;;;;5118131;27;20464;-76
2020/12/20 04:27:26;;;;;;;22.77;15.97;;;8.40;99.90;;;;;;5124490;27;20483;-75
2020/12/20 04:29:52;;;;;;;18.77;16.37;;;8.40;99.90;;;;;;5123654;27;20461;-76
2020/12/20 04:32:20;;;;;;;21.13;16.43;;;8.40;99.90;;;;;;5118980;27;20467;-75
2020/12/20 04:34:46;;;;;;;19.27;16.33;;;8.40;99.90;;;;;;5117765;27;20489;-74
2020/12/20 04:37:13;;;;;;;18.30;16.40;;;8.40;99.90;;;;;;5122051;27;20457;-75
2020/12/20 04:39:40;;;;;;;17.00;15.20;;;8.50;99.90;;;;;;5122785;27;20463;-74
2020/12/20 04:42:07;;;;;;;31.93;17.13;;;8.50;99.90;;;;;;5119963;27;20483;-75
2020/12/20 04:44:36;;;;;;;21.00;17.40;;;8.50;99.90;;;;;;5116577;27;20463;-75
2020/12/20 04:47:04;;;;;;;32.60;16.60;;;8.60;99.90;;;;;;5117553;27;20500;-75
2020/12/20 04:49:31;;;;;;;19.07;17.17;;;8.60;99.90;;;;;;5122496;27;20462;-75
2020/12/20 04:51:59;;;;;;;18.80;16.60;;;8.50;99.90;;;;;;5120528;27;20468;-75
2020/12/20 04:54:26;;;;;;;18.93;16.90;;;8.50;99.90;;;;;;5118410;27;20459;-74
2020/12/20 04:56:53;;;;;;;26.40;17.27;;;8.50;99.90;;;;;;5121481;27;21050;-74
2020/12/20 04:59:21;;;;;;;22.17;17.83;;;8.40;99.90;;;;;;5116663;27;20495;-76
2020/12/20 05:01:47;;;;;;;27.87;16.10;;;8.50;99.90;;;;;;5123167;27;20459;-76
2020/12/20 05:04:14;;;;;;;21.10;15.80;;;8.50;99.90;;;;;;5120042;27;20476;-75
2020/12/20 05:06:40;;;;;;;18.43;16.73;;;8.50;99.90;;;;;;5112977;27;20461;-76
2020/12/20 05:09:08;;;;;;;21.40;17.10;;;8.50;99.90;;;;;;5120024;27;20468;-76
2020/12/20 05:11:35;;;;;;;26.80;16.20;;;8.50;99.90;;;;;;5117156;27;20511;-76
2020/12/20 05:14:04;;;;;;;17.37;15.40;;;8.50;99.90;;;;;;5122994;27;20868;-74
2020/12/20 05:16:31;;;;;;;20.43;16.73;;;8.60;99.90;;;;;;5118207;27;20456;-75
2020/12/20 05:18:59;;;;;;;24.47;17.17;;;8.60;99.90;;;;;;5121174;27;20460;-76
2020/12/20 05:21:26;;;;;;;21.90;16.83;;;8.70;99.90;;;;;;5119314;27;20514;-75
2020/12/20 05:23:53;;;;;;;33.07;17.60;;;8.70;99.90;;;;;;5116237;27;20466;-74
2020/12/20 05:26:27;;;;;;;30.90;16.43;;;8.70;99.90;;;;;;5117243;27;20477;-74
2020/12/20 05:29:06;;;;;;;28.77;15.80;;;8.70;99.90;;;;;;5120490;27;20507;-75
2020/12/20 05:31:35;;;;;;;21.97;16.47;;;8.70;99.90;;;;;;5123766;27;20453;-75
2020/12/20 05:34:02;;;;;;;27.80;16.07;;;8.60;99.90;;;;;;5123118;27;20468;-75
2020/12/20 05:36:30;;;;;;;26.67;16.70;;;8.50;99.90;;;;;;5120458;27;20484;-74
2020/12/20 05:39:12;;;;;;;17.60;15.67;;;8.50;99.90;;;;;;5114231;27;20459;-76
2020/12/20 05:41:39;;;;;;;18.70;16.73;;;8.50;99.90;;;;;;5120272;27;20453;-75
2020/12/20 05:44:14;;;;;;;17.97;15.90;;;8.40;99.90;;;;;;5115083;27;20471;-74
2020/12/20 05:46:42;;;;;;;27.87;16.27;;;8.40;99.90;;;;;;5120782;27;20550;-76
2020/12/20 05:49:17;;;;;;;20.03;16.40;;;8.40;99.90;;;;;;5121863;27;20978;-76
2020/12/20 05:52:03;;;;;;;20.50;16.53;;;8.30;99.90;;;;;;5119986;27;20455;-76
2020/12/20 05:54:31;;;;;;;19.67;15.70;;;8.30;99.90;;;;;;5118095;27;21033;-75
2020/12/20 05:57:14;;;;;;;28.40;18.30;;;8.30;99.90;;;;;;5114509;27;20467;-74
2020/12/20 05:59:41;;;;;;;28.83;16.23;;;8.30;99.90;;;;;;5115488;27;20516;-74
2020/12/20 06:02:10;;;;;;;18.90;15.90;;;8.30;99.90;;;;;;5115689;28;20822;-74
2020/12/20 06:04:38;;;;;;;23.03;16.30;;;8.30;99.90;;;;;;5115767;28;20857;-75
2020/12/20 06:07:09;;;;;;;22.07;15.33;;;8.30;99.90;;;;;;5116642;28;20491;-76
2020/12/20 06:09:45;;;;;;;18.80;15.73;;;8.30;99.90;;;;;;5116449;28;21009;-74
2020/12/20 06:12:15;;;;;;;21.90;15.87;;;8.30;99.90;;;;;;5116294;28;20457;-74
2020/12/20 06:14:45;;;;;;;29.23;15.37;;;8.30;99.90;;;;;;5116973;28;20461;-75
2020/12/20 06:17:14;;;;;;;16.80;14.77;;;8.30;99.90;;;;;;5123303;28;20513;-75
2020/12/20 06:19:59;;;;;;;21.27;15.20;;;8.30;99.90;;;;;;5115999;28;20526;-75
2020/12/20 06:22:28;;;;;;;24.33;16.13;;;8.40;99.90;;;;;;5117652;28;20462;-75
2020/12/20 06:24:57;;;;;;;18.00;15.00;;;8.40;99.90;;;;;;5115324;28;20546;-74
2020/12/20 06:27:25;;;;;;;18.63;15.90;;;8.40;99.90;;;;;;5119588;28;20480;-76
2020/12/20 06:29:54;;;;;;;18.30;16.40;;;8.40;99.90;;;;;;5114516;28;20486;-76
2020/12/20 06:32:32;;;;;;;18.80;17.10;;;8.40;99.90;;;;;;5122544;27;20465;-75
2020/12/20 06:35:00;;;;;;;19.03;16.07;;;8.40;99.90;;;;;;5117949;27;20907;-74
2020/12/20 06:37:27;;;;;;;18.87;17.10;;;8.40;99.90;;;;;;5127792;27;20791;-74
2020/12/20 06:39:53;;;;;;;22.33;16.20;;;8.40;99.90;;;;;;5120836;27;20454;-74
2020/12/20 06:42:37;;;;;;;22.97;16.20;;;8.40;99.90;;;;;;5124940;27;20446;-75
2020/12/20 06:45:18;;;;;;;18.00;15.97;;;8.40;99.90;;;;;;5117321;27;20457;-75
2020/12/20 06:47:48;;;;;;;17.50;16.30;;;8.30;99.90;;;;;;5119193;27;20494;-74
2020/12/20 06:50:38;;;;;;;17.93;16.37;;;8.30;99.90;;;;;;5124223;27;20479;-75
2020/12/20 06:53:05;;;;;;;19.03;16.90;;;8.30;99.90;;;;;;5119949;27;20461;-74
2020/12/20 06:55:34;;;;;;;18.20;16.70;;;8.30;99.90;;;;;;5125993;27;20470;-76
2020/12/20 06:58:17;;;;;;;17.87;16.33;;;8.30;99.90;;;;;;5121428;27;20464;-76
2020/12/20 07:00:46;;;;;;;18.40;16.50;;;8.20;99.90;;;;;;5101400;28;20521;-74
2020/12/20 07:03:36;;;;;;;16.33;14.90;;;8.20;99.90;;;;;;5106483;28;20473;-76
2020/12/20 07:06:11;;;;;;;17.50;16.30;;;8.20;99.90;;;;;;5106020;28;20485;-74
2020/12/20 07:08:38;;;;;;;17.50;16.10;;;8.20;99.90;;;;;;5103609;28;20511;-74
2020/12/20 07:11:08;;;;;;;19.53;16.33;;;8.20;99.90;;;;;;5112797;28;20458;-76
2020/12/20 07:13:35;;;;;;;19.50;15.97;;;8.20;99.90;;;;;;5101058;28;20856;-74
2020/12/20 07:16:07;;;;;;;21.10;19.00;;;8.20;99.90;;;;;;5107251;28;20459;-74
2020/12/20 07:18:42;;;;;;;20.00;17.97;;;8.10;99.90;;;;;;5107482;28;20529;-75
2020/12/20 07:21:10;;;;;;;20.17;18.20;;;8.20;99.90;;;;;;5101911;28;20498;-76
2020/12/20 07:23:41;;;;;;;23.40;21.50;;;8.20;99.90;;;;;;5103796;28;20465;-75
2020/12/20 07:26:08;;;;;;;18.53;17.03;;;8.20;99.90;;;;;;5107363;28;20464;-76
2020/12/20 07:28:34;;;;;;;17.70;16.30;;;8.20;99.90;;;;;;5111390;28;20504;-73
2020/12/20 07:31:01;;;;;;;18.83;16.87;;;8.20;99.90;;;;;;5107088;28;20463;-75
2020/12/20 07:33:28;;;;;;;17.17;15.87;;;8.10;99.90;;;;;;5102959;28;20487;-75
2020/12/20 07:35:55;;;;;;;18.40;17.17;;;8.10;99.90;;;;;;5104048;28;20471;-76
2020/12/20 07:38:21;;;;;;;17.67;15.60;;;8.10;99.90;;;;;;5106658;28;20464;-75
2020/12/20 07:40:48;;;;;;;17.00;15.63;;;8.10;99.90;;;;;;5107557;28;20470;-74
2020/12/20 07:43:18;;;;;;;16.50;15.20;;;8.00;99.90;;;;;;5102119;28;20482;-75
2020/12/20 07:45:58;;;;;;;17.27;15.50;;;8.00;99.90;;;;;;5099602;28;20655;-74
2020/12/20 07:48:26;;;;;;;17.80;16.20;;;8.00;99.90;;;;;;5098390;28;20580;-75
2020/12/20 07:50:53;;;;;;;17.73;16.10;;;7.90;99.90;;;;;;5104371;28;21006;-74
2020/12/20 07:53:20;;;;;;;16.30;15.13;;;7.90;99.90;;;;;;5106612;28;20545;-76
2020/12/20 07:55:48;;;;;;;16.73;15.33;;;7.90;99.90;;;;;;5103338;28;20453;-75
2020/12/20 07:58:17;;;;;;;19.00;16.90;;;7.90;99.90;;;;;;5104591;28;20460;-74
2020/12/20 08:00:44;;;;;;;18.70;17.20;;;7.90;99.90;;;;;;5119004;27;20996;-74
2020/12/20 08:03:12;;;;;;;18.07;16.40;;;7.80;99.90;;;;;;5121517;27;20455;-76
2020/12/20 08:05:39;;;;;;;18.03;16.47;;;7.80;99.90;;;;;;5122594;27;20459;-75
2020/12/20 08:08:05;;;;;;;19.37;17.40;;;7.90;99.90;;;;;;5124559;27;20523;-76
2020/12/20 08:10:35;;;;;;;20.90;18.70;;;7.90;99.90;;;;;;5121917;27;20461;-75
2020/12/20 08:13:02;;;;;;;23.70;17.50;;;8.00;99.90;;;;;;5121521;27;20745;-75
2020/12/20 08:15:28;;;;;;;19.07;17.40;;;8.00;99.90;;;;;;5122492;27;20895;-75
2020/12/20 08:17:54;;;;;;;19.43;17.67;;;8.00;99.90;;;;;;5122764;27;20509;-74
2020/12/20 08:20:21;;;;;;;18.80;17.20;;;8.00;99.90;;;;;;5127020;27;20463;-74
2020/12/20 08:22:47;;;;;;;19.00;16.87;;;8.10;99.90;;;;;;5119281;27;20471;-76
2020/12/20 08:25:16;;;;;;;18.37;16.53;;;8.10;99.90;;;;;;5120190;27;20471;-75
2020/12/20 08:27:44;;;;;;;18.90;17.17;;;8.20;99.90;;;;;;5121547;27;20858;-75
2020/12/20 08:30:11;;;;;;;18.97;17.57;;;8.20;99.90;;;;;;5124775;27;20460;-73
2020/12/20 08:32:40;;;;;;;17.60;16.20;;;8.20;99.90;;;;;;5123379;27;20449;-75
2020/12/20 08:35:11;;;;;;;18.70;16.80;;;8.20;99.90;;;;;;5120990;27;20485;-74
2020/12/20 08:37:37;;;;;;;18.60;17.20;;;8.30;99.90;;;;;;5115191;27;20520;-76
2020/12/20 08:40:11;;;;;;;20.00;17.90;;;8.30;99.90;;;;;;5112449;27;20469;-74
2020/12/20 08:42:39;;;;;;;19.70;17.80;;;8.40;99.90;;;;;;5113630;27;20470;-74
2020/12/20 08:45:15;;;;;;;18.73;16.83;;;8.50;99.90;;;;;;5120181;27;20465;-75
2020/12/20 08:47:43;;;;;;;21.27;17.33;;;8.50;99.90;;;;;;5118887;27;20868;-75
2020/12/20 08:50:11;;;;;;;17.97;16.57;;;8.60;99.90;;;;;;5119967;27;20456;-74
2020/12/20 08:52:38;;;;;;;17.57;16.27;;;8.70;99.90;;;;;;5116925;27;20496;-75
2020/12/20 08:55:08;;;;;;;19.40;16.67;;;8.80;99.90;;;;;;5111531;27;20468;-76
2020/12/20 08:57:36;;;;;;;19.23;15.03;;;8.80;99.90;;;;;;5115691;27;20508;-76
2020/12/20 09:00:10;;;;;;;16.37;14.80;;;8.90;99.90;;;;;;5114887;27;20508;-76
2020/12/20 09:02:38;;;;;;;16.50;15.30;;;9.10;99.90;;;;;;5118696;27;20538;-74
2020/12/20 09:05:09;;;;;;;15.53;14.10;;;9.20;99.90;;;;;;5119229;27;20592;-75
2020/12/20 09:07:39;;;;;;;15.90;14.83;;;9.30;99.90;;;;;;5117155;27;20538;-75
2020/12/20 09:10:09;;;;;;;15.87;14.20;;;9.40;99.90;;;;;;5121695;27;20464;-76
2020/12/20 09:12:36;;;;;;;15.70;14.30;;;9.50;99.90;;;;;;5117962;27;20457;-75
2020/12/20 09:15:08;;;;;;;15.93;14.47;;;9.50;99.90;;;;;;5116698;27;20471;-74
2020/12/20 09:17:39;;;;;;;16.70;15.27;;;9.60;99.90;;;;;;5117584;27;20476;-75
2020/12/20 09:20:09;;;;;;;18.50;16.00;;;9.70;99.90;;;;;;5121233;27;20520;-75
2020/12/20 09:22:46;;;;;;;15.83;14.63;;;9.80;99.90;;;;;;5115853;27;21040;-77
2020/12/20 09:25:15;;;;;;;16.43;14.70;;;10.00;99.90;;;;;;5113238;27;20799;-77
2020/12/20 09:27:56;;;;;;;15.30;14.20;;;10.20;99.90;;;;;;5115312;27;20709;-75
2020/12/20 09:30:34;;;;;;;15.13;14.23;;;10.20;99.90;;;;;;5115154;27;20601;-74
2020/12/20 09:33:01;;;;;;;15.10;13.87;;;10.30;99.90;;;;;;5122014;27;20578;-75
2020/12/20 09:35:28;;;;;;;15.67;14.13;;;10.40;99.90;;;;;;5115812;27;21148;-76
2020/12/20 09:37:55;;;;;;;15.00;13.80;;;10.50;99.90;;;;;;5118543;27;20471;-76
2020/12/20 09:40:21;;;;;;;15.10;14.03;;;10.60;99.90;;;;;;5118332;27;20955;-75
2020/12/20 09:42:48;;;;;;;16.60;14.90;;;10.70;99.90;;;;;;5122087;27;20453;-74
2020/12/20 09:45:16;;;;;;;15.33;14.17;;;10.70;99.90;;;;;;5121438;27;20507;-75
2020/12/20 09:47:44;;;;;;;14.83;13.50;;;10.80;99.90;;;;;;5116698;27;20492;-75
2020/12/20 09:50:12;;;;;;;14.33;13.43;;;10.90;99.90;;;;;;5117775;27;20509;-74
2020/12/20 09:52:40;;;;;;;14.80;13.27;;;10.90;99.90;;;;;;5119795;27;20460;-77
2020/12/20 09:55:08;;;;;;;15.17;13.60;;;10.90;99.90;;;;;;5114842;27;20463;-75
2020/12/20 09:57:36;;;;;;;13.87;12.97;;;11.00;99.90;;;;;;5117572;27;20528;-76
2020/12/20 10:00:03;;;;;;;14.50;13.00;;;11.00;99.90;;;;;;5117931;27;20531;-77
2020/12/20 10:02:30;;;;;;;14.27;12.97;;;11.00;99.90;;;;;;5119787;27;20472;-75
2020/12/20 10:04:58;;;;;;;15.47;13.93;;;11.00;99.90;;;;;;5118890;27;20468;-77
2020/12/20 10:07:25;;;;;;;15.83;13.63;;;11.00;99.90;;;;;;5111838;28;20472;-77
2020/12/20 10:09:51;;;;;;;14.13;13.00;;;11.00;99.90;;;;;;5119578;28;20816;-76
2020/12/20 10:12:17;;;;;;;15.03;13.70;;;11.10;99.90;;;;;;5121601;28;20955;-76
2020/12/20 10:14:45;;;;;;;15.07;13.77;;;11.20;99.90;;;;;;5117697;28;20476;-76
2020/12/20 10:17:11;;;;;;;18.57;13.87;;;11.20;99.90;;;;;;5116119;28;20465;-76
2020/12/20 10:19:38;;;;;;;19.33;14.03;;;11.30;99.90;;;;;;5118992;28;20466;-78
2020/12/20 10:22:04;;;;;;;14.83;13.70;;;11.30;99.90;;;;;;5109280;28;20562;-76
2020/12/20 10:24:32;;;;;;;15.47;13.40;;;11.40;99.90;;;;;;5110690;28;20453;-77
2020/12/20 10:26:58;;;;;;;14.47;12.93;;;11.40;99.90;;;;;;5118725;28;20463;-76
2020/12/20 10:29:25;;;;;;;14.73;13.33;;;11.50;99.90;;;;;;5115514;28;20504;-75
2020/12/20 10:31:51;;;;;;;15.40;13.10;;;11.50;99.90;;;;;;5116379;28;20453;-74
2020/12/20 10:34:17;;;;;;;14.47;13.00;;;11.60;99.90;;;;;;5117289;28;20480;-73
2020/12/20 10:36:44;;;;;;;27.70;13.97;;;11.70;99.90;;;;;;5118353;28;20839;-74
2020/12/20 10:39:10;;;;;;;15.07;13.43;;;11.70;99.90;;;;;;5111387;28;20839;-76
2020/12/20 10:41:39;;;;;;;14.20;12.70;;;11.70;99.90;;;;;;5116466;28;20858;-76
2020/12/20 10:44:07;;;;;;;15.60;13.97;;;11.70;99.90;;;;;;5110198;28;20468;-74
2020/12/20 10:46:33;;;;;;;15.70;14.07;;;11.80;99.90;;;;;;5114750;28;20610;-74
2020/12/20 10:49:00;;;;;;;12.90;12.07;;;11.80;99.90;;;;;;5116618;28;20483;-76
2020/12/20 10:51:27;;;;;;;15.10;12.80;;;11.80;99.90;;;;;;5111661;27;20465;-74
2020/12/20 10:53:54;;;;;;;14.83;12.90;;;11.80;99.90;;;;;;5114783;28;20460;-76
2020/12/20 10:56:20;;;;;;;14.83;13.20;;;11.80;99.90;;;;;;5112342;28;20551;-76
2020/12/20 10:58:48;;;;;;;13.80;12.70;;;11.80;99.90;;;;;;5115399;28;20491;-74
2020/12/20 11:01:17;;;;;;;15.87;14.50;;;11.70;99.90;;;;;;5110757;28;20832;-75
2020/12/20 11:03:45;;;;;;;17.23;13.63;;;11.80;99.90;;;;;;5109525;28;20528;-76
2020/12/20 11:06:18;;;;;;;16.03;12.87;;;11.80;99.90;;;;;;5115168;28;20464;-75
2020/12/20 11:08:45;;;;;;;16.70;15.20;;;11.80;99.90;;;;;;5110886;28;20485;-75
2020/12/20 11:11:12;;;;;;;20.20;16.97;;;11.80;99.90;;;;;;5112346;28;20461;-75
2020/12/20 11:13:41;;;;;;;17.43;15.33;;;11.80;99.90;;;;;;5113862;28;20457;-76
2020/12/20 11:16:17;;;;;;;21.17;18.43;;;11.90;99.90;;;;;;5107765;28;20461;-77
2020/12/20 11:18:45;;;;;;;18.07;16.27;;;11.80;99.90;;;;;;5112867;27;20456;-78
2020/12/20 11:21:12;;;;;;;19.87;16.80;;;11.80;99.90;;;;;;5118202;27;20452;-74
2020/12/20 11:23:39;;;;;;;17.03;15.57;;;11.80;99.90;;;;;;5113791;27;20479;-78
2020/12/20 11:26:12;;;;;;;16.37;14.83;;;11.70;99.90;;;;;;5115486;27;20461;-77
2020/12/20 11:28:39;;;;;;;18.47;16.97;;;11.80;99.90;;;;;;5119662;27;20483;-76
2020/12/20 11:31:07;;;;;;;16.27;14.27;;;11.80;99.90;;;;;;5114011;27;20475;-75
2020/12/20 11:33:34;;;;;;;18.90;16.73;;;11.80;99.90;;;;;;5115586;27;20789;-78
2020/12/20 11:36:00;;;;;;;18.70;16.27;;;11.90;99.90;;;;;;5122214;27;21135;-77
2020/12/20 11:38:27;;;;;;;18.27;16.00;;;11.90;99.90;;;;;;5118360;27;20456;-75
2020/12/20 11:40:54;;;;;;;18.73;15.47;;;11.90;99.90;;;;;;5119075;27;20679;-76
2020/12/20 11:43:21;;;;;;;16.33;14.70;;;11.80;99.90;;;;;;5112894;27;20469;-76
2020/12/20 11:45:48;;;;;;;17.47;15.50;;;12.00;99.90;;;;;;5119112;27;20463;-75
2020/12/20 11:48:15;;;;;;;17.77;15.23;;;12.00;99.90;;;;;;5117381;27;20480;-75
2020/12/20 11:50:42;;;;;;;17.73;15.97;;;12.10;99.90;;;;;;5114342;27;20951;-76
2020/12/20 11:53:09;;;;;;;16.63;15.23;;;12.20;99.90;;;;;;5114199;27;20457;-78
2020/12/20 11:55:36;;;;;;;18.20;15.60;;;12.20;99.90;;;;;;5117985;27;20854;-76
2020/12/20 11:58:04;;;;;;;15.70;14.27;;;12.30;99.90;;;;;;5118101;27;20456;-78
2020/12/20 12:00:30;;;;;;;25.23;20.83;;;12.40;99.90;;;;;;5117343;27;20480;-74
2020/12/20 12:02:56;;;;;;;17.23;13.90;;;12.50;99.90;;;;;;5112333;27;20457;-79
2020/12/20 12:05:22;;;;;;;13.40;12.33;;;12.70;99.90;;;;;;5112811;27;20460;-76
2020/12/20 12:07:50;;;;;;;15.67;14.40;;;12.80;99.90;;;;;;5112669;27;20991;-75
2020/12/20 12:10:16;;;;;;;13.50;12.07;;;12.80;99.90;;;;;;5116580;27;20785;-76
2020/12/20 12:12:43;;;;;;;19.67;17.60;;;12.90;99.90;;;;;;5121324;27;20465;-77
2020/12/20 12:15:10;;;;;;;14.50;13.33;;;12.90;99.90;;;;;;5122578;27;20456;-76
2020/12/20 12:17:37;;;;;;;15.53;13.93;;;12.90;99.90;;;;;;5119912;27;20544;-76
2020/12/20 12:20:03;;;;;;;15.67;12.50;;;13.00;99.90;;;;;;5123338;27;20468;-76
2020/12/20 12:22:30;;;;;;;14.10;12.77;;;13.00;99.90;;;;;;5122189;27;20938;-76
2020/12/20 12:24:57;;;;;;;15.07;13.57;;;13.00;99.90;;;;;;5121460;27;20472;-76
2020/12/20 12:27:24;;;;;;;15.40;12.77;;;13.00;99.90;;;;;;5124560;27;20457;-77
2020/12/20 12:29:50;;;;;;;14.17;12.87;;;13.00;99.90;;;;;;5113468;27;20465;-76
2020/12/20 12:32:16;;;;;;;13.07;11.83;;;13.00;99.90;;;;;;5115501;27;20963;-75
2020/12/20 12:34:42;;;;;;;13.77;12.47;;;13.10;99.90;;;;;;5121812;27;20518;-78
2020/12/20 12:37:09;;;;;;;13.03;11.67;;;13.10;99.90;;;;;;5118011;27;20447;-78
2020/12/20 12:39:36;;;;;;;12.53;11.23;;;13.20;99.90;;;;;;5120172;27;20459;-75